createdAt,value
2018-09-03T00:00:33.381Z,8.20
2018-09-03T00:03:02.736Z,7.67
2018-09-03T00:05:32.025Z,6.53
2018-09-03T00:08:01.403Z,7.80
2018-09-03T00:10:31.500Z,7.83
2018-09-03T00:13:00.938Z,7.27
2018-09-03T00:15:30.352Z,7.17
2018-09-03T00:17:59.715Z,7.43
2018-09-03T00:20:29.057Z,7.07
2018-09-03T00:22:58.421Z,8.07
2018-09-03T00:25:27.858Z,7.83
2018-09-03T00:27:57.140Z,7.60
2018-09-03T00:30:26.962Z,7.40
2018-09-03T00:33:01.702Z,7.23
2018-09-03T00:35:36.289Z,6.50
2018-09-03T00:38:10.991Z,7.70
2018-09-03T00:40:45.716Z,8.83
2018-09-03T00:43:20.440Z,8.87
2018-09-03T00:45:55.035Z,8.60
2018-09-03T00:48:24.628Z,9.27
2018-09-03T00:50:54.152Z,9.13
2018-09-03T00:53:23.501Z,8.83
2018-09-03T00:55:52.837Z,9.03
2018-09-03T00:58:22.363Z,9.60
2018-09-03T01:00:51.812Z,9.63
2018-09-03T01:03:21.182Z,7.80
2018-09-03T01:05:50.539Z,7.40
2018-09-03T01:08:19.859Z,9.00
2018-09-03T01:10:49.345Z,8.17
2018-09-03T01:13:18.668Z,7.40
2018-09-03T01:15:48.198Z,8.37
2018-09-03T01:18:17.694Z,8.47
2018-09-03T01:20:48.102Z,8.53
2018-09-03T01:23:17.803Z,8.73
2018-09-03T01:25:47.436Z,7.70
2018-09-03T01:28:16.838Z,7.70
2018-09-03T01:30:46.348Z,6.67
2018-09-03T01:33:15.808Z,6.70
2018-09-03T01:35:45.316Z,8.37
2018-09-03T01:38:14.799Z,8.53
2018-09-03T01:40:44.300Z,8.07
2018-09-03T01:43:13.612Z,8.00
2018-09-03T01:45:43.287Z,8.93
2018-09-03T01:48:12.874Z,7.93
2018-09-03T01:50:42.364Z,8.17
2018-09-03T01:53:11.789Z,7.97
2018-09-03T01:55:41.173Z,7.40
2018-09-03T01:58:10.586Z,7.83
2018-09-03T02:00:40.039Z,8.83
2018-09-03T02:03:09.350Z,8.70
2018-09-03T02:05:38.681Z,9.50
2018-09-03T02:08:08.657Z,8.20
2018-09-03T02:10:38.006Z,9.10
2018-09-03T02:13:07.419Z,8.60
2018-09-03T02:15:36.737Z,9.07
2018-09-03T02:18:06.063Z,9.63
2018-09-03T02:20:35.495Z,10.70
2018-09-03T02:23:04.860Z,10.67
2018-09-03T02:25:34.303Z,9.93
2018-09-03T02:28:03.809Z,10.67
2018-09-03T02:30:33.235Z,9.70
2018-09-03T02:33:02.633Z,9.77
2018-09-03T02:35:32.013Z,10.47
2018-09-03T02:38:01.345Z,9.50
2018-09-03T02:40:30.708Z,10.40
2018-09-03T02:43:00.135Z,8.60
2018-09-03T02:45:29.479Z,9.13
2018-09-03T02:47:58.819Z,7.63
2018-09-03T02:50:28.408Z,8.60
2018-09-03T02:52:57.796Z,8.70
2018-09-03T02:55:27.184Z,9.43
2018-09-03T02:57:56.500Z,9.00
2018-09-03T03:00:26.557Z,9.20
2018-09-03T03:02:57.709Z,8.23
2018-09-03T03:05:28.041Z,9.93
2018-09-03T03:07:58.052Z,8.33
2018-09-03T03:10:27.399Z,8.47
2018-09-03T03:12:56.742Z,7.83
2018-09-03T03:15:26.379Z,8.37
2018-09-03T03:17:55.699Z,8.37
2018-09-03T03:20:25.075Z,8.07
2018-09-03T03:22:54.414Z,9.23
2018-09-03T03:25:23.865Z,8.90
2018-09-03T03:27:53.347Z,11.00
2018-09-03T03:30:22.769Z,10.20
2018-09-03T03:32:52.277Z,9.27
2018-09-03T03:35:21.680Z,8.23
2018-09-03T03:37:51.048Z,9.37
2018-09-03T03:40:20.390Z,9.37
2018-09-03T03:42:49.798Z,10.10
2018-09-03T03:45:19.146Z,11.70
2018-09-03T03:47:48.459Z,10.57
2018-09-03T03:50:17.910Z,11.70
2018-09-03T03:52:47.299Z,9.17
2018-09-03T03:55:16.765Z,8.70
2018-09-03T03:57:46.009Z,9.20
2018-09-03T04:00:15.301Z,9.90
2018-09-03T04:02:44.689Z,9.40
2018-09-03T04:05:14.070Z,9.93
2018-09-03T04:07:43.496Z,9.70
2018-09-03T04:10:12.853Z,9.00
2018-09-03T04:12:46.351Z,10.00
2018-09-03T04:15:15.712Z,10.13
2018-09-03T04:17:45.022Z,10.70
2018-09-03T04:20:14.372Z,9.30
2018-09-03T04:22:43.757Z,10.23
2018-09-03T04:25:13.167Z,10.30
2018-09-03T04:27:42.456Z,11.00
2018-09-03T04:30:11.855Z,10.33
2018-09-03T04:32:41.167Z,9.27
2018-09-03T04:35:10.506Z,9.40
2018-09-03T04:37:39.991Z,9.77
2018-09-03T04:40:09.381Z,11.30
2018-09-03T04:42:38.787Z,10.60
2018-09-03T04:45:08.228Z,12.50
2018-09-03T04:47:37.588Z,10.30
2018-09-03T04:50:06.958Z,11.00
2018-09-03T04:52:36.401Z,12.07
2018-09-03T04:55:06.255Z,11.67
2018-09-03T04:57:35.527Z,13.13
2018-09-03T05:00:05.631Z,12.43
2018-09-03T05:02:34.955Z,11.83
2018-09-03T05:05:04.407Z,10.93
2018-09-03T05:07:33.700Z,12.20
2018-09-03T05:10:03.100Z,13.70
2018-09-03T05:12:32.681Z,11.90
2018-09-03T05:15:02.005Z,14.10
2018-09-03T05:17:31.785Z,12.10
2018-09-03T05:20:01.208Z,13.73
2018-09-03T05:22:30.597Z,12.97
2018-09-03T05:24:59.932Z,13.83
2018-09-03T05:27:29.539Z,14.60
2018-09-03T05:29:58.923Z,12.43
2018-09-03T05:32:28.531Z,12.67
2018-09-03T05:34:57.857Z,13.23
2018-09-03T05:37:27.188Z,12.57
2018-09-03T05:39:57.539Z,13.73
2018-09-03T05:42:26.937Z,12.50
2018-09-03T05:44:56.333Z,13.83
2018-09-03T05:47:25.687Z,13.90
2018-09-03T05:49:55.138Z,12.63
2018-09-03T05:52:24.649Z,13.40
2018-09-03T05:54:54.371Z,15.27
2018-09-03T05:57:24.043Z,14.77
2018-09-03T05:59:53.444Z,15.90
2018-09-03T06:02:22.837Z,16.80
2018-09-03T06:04:52.472Z,15.20
2018-09-03T06:07:21.923Z,15.80
2018-09-03T06:09:51.294Z,14.03
2018-09-03T06:12:20.859Z,15.13
2018-09-03T06:14:50.220Z,17.07
2018-09-03T06:17:19.577Z,15.70
2018-09-03T06:19:49.039Z,16.00
2018-09-03T06:22:19.417Z,15.97
2018-09-03T06:24:48.859Z,15.20
2018-09-03T06:27:18.462Z,17.73
2018-09-03T06:29:47.812Z,17.60
2018-09-03T06:32:17.227Z,14.73
2018-09-03T06:34:46.586Z,15.23
2018-09-03T06:37:15.938Z,16.70
2018-09-03T06:39:45.379Z,15.00
2018-09-03T06:42:14.785Z,15.97
2018-09-03T06:44:44.386Z,14.97
2018-09-03T06:47:14.317Z,16.37
2018-09-03T06:49:43.708Z,16.40
2018-09-03T06:52:13.254Z,14.47
2018-09-03T06:54:42.700Z,15.23
2018-09-03T06:57:12.204Z,16.00
2018-09-03T06:59:41.568Z,17.10
2018-09-03T07:02:10.858Z,16.13
2018-09-03T07:04:40.437Z,16.10
2018-09-03T07:07:09.831Z,17.23
2018-09-03T07:09:39.425Z,16.67
2018-09-03T07:12:08.849Z,16.30
2018-09-03T07:14:38.239Z,16.63
2018-09-03T07:17:07.695Z,15.90
2018-09-03T07:19:38.056Z,14.77
2018-09-03T07:22:07.413Z,14.00
2018-09-03T07:24:37.027Z,14.37
2018-09-03T07:27:06.560Z,14.80
2018-09-03T07:29:36.025Z,16.63
2018-09-03T07:32:05.493Z,16.10
2018-09-03T07:34:34.857Z,14.83
2018-09-03T07:37:04.422Z,14.67
2018-09-03T07:39:33.757Z,14.93
2018-09-03T07:42:03.389Z,16.10
2018-09-03T07:44:32.824Z,16.20
2018-09-03T07:47:02.608Z,15.10
2018-09-03T07:49:31.972Z,12.53
2018-09-03T07:52:01.381Z,14.67
2018-09-03T07:54:30.725Z,14.80
2018-09-03T07:57:00.136Z,13.90
2018-09-03T07:59:29.474Z,13.37
2018-09-03T08:01:59.150Z,12.30
2018-09-03T08:04:28.608Z,13.40
2018-09-03T08:06:57.936Z,12.80
2018-09-03T08:09:27.281Z,13.27
2018-09-03T08:11:57.782Z,15.43
2018-09-03T08:14:27.311Z,13.40
2018-09-03T08:16:56.805Z,14.47
2018-09-03T08:19:26.112Z,14.57
2018-09-03T08:21:55.802Z,13.10
2018-09-03T08:24:25.655Z,13.23
2018-09-03T08:26:55.034Z,12.27
2018-09-03T08:29:24.400Z,11.53
2018-09-03T08:31:53.909Z,11.83
2018-09-03T08:34:23.275Z,12.57
2018-09-03T08:36:52.628Z,14.53
2018-09-03T08:39:22.045Z,12.80
2018-09-03T08:41:51.535Z,13.50
2018-09-03T08:44:20.969Z,12.17
2018-09-03T08:46:50.429Z,11.70
2018-09-03T08:49:19.929Z,12.67
2018-09-03T08:54:34.862Z,12.07
2018-09-03T08:57:08.159Z,11.60
2018-09-03T08:59:44.936Z,13.30
2018-09-03T09:02:21.162Z,13.30
2018-09-03T09:04:57.669Z,12.83
2018-09-03T09:07:33.404Z,11.50
2018-09-03T09:10:26.813Z,14.67
2018-09-03T09:12:57.250Z,13.10
2018-09-03T09:15:27.798Z,13.37
2018-09-03T09:17:59.901Z,13.43
2018-09-03T09:20:29.127Z,13.57
2018-09-03T09:22:58.622Z,15.17
2018-09-03T09:25:28.008Z,15.40
2018-09-03T09:27:57.429Z,13.10
2018-09-03T09:30:26.842Z,14.00
2018-09-03T09:32:56.140Z,15.60
2018-09-03T09:35:26.113Z,14.73
2018-09-03T09:37:55.812Z,14.33
2018-09-03T09:40:25.154Z,14.07
2018-09-03T09:42:54.655Z,14.27
2018-09-03T09:45:24.482Z,15.40
2018-09-03T09:47:53.952Z,15.97
2018-09-03T09:50:23.853Z,14.70
2018-09-03T09:52:53.264Z,17.03
2018-09-03T09:55:22.755Z,14.77
2018-09-03T09:57:52.135Z,16.03
2018-09-03T10:00:27.002Z,15.50
2018-09-03T10:02:56.351Z,15.37
2018-09-03T10:05:25.690Z,19.00
2018-09-03T10:07:55.105Z,16.27
2018-09-03T10:10:24.437Z,17.17
2018-09-03T10:12:53.765Z,18.37
2018-09-03T10:15:23.248Z,17.67
2018-09-03T10:17:53.414Z,17.50
2018-09-03T10:20:23.540Z,15.93
2018-09-03T10:22:52.993Z,16.70
2018-09-03T10:25:22.492Z,18.70
2018-09-03T10:27:51.855Z,18.30
2018-09-03T10:30:21.298Z,18.10
2018-09-03T10:32:50.772Z,18.17
2018-09-03T10:35:20.373Z,19.23
2018-09-03T10:37:50.390Z,19.10
2018-09-03T10:40:19.584Z,16.10
2018-09-03T10:42:49.123Z,19.70
2018-09-03T10:45:18.447Z,17.70
2018-09-03T10:47:47.988Z,19.10
2018-09-03T10:50:18.095Z,19.87
2018-09-03T10:52:47.579Z,18.27
2018-09-03T10:55:21.613Z,19.37
2018-09-03T10:57:51.104Z,19.77
2018-09-03T11:00:20.495Z,21.23
2018-09-03T11:02:49.941Z,19.57
2018-09-03T11:05:21.343Z,19.20
2018-09-03T11:07:50.695Z,19.43
2018-09-03T11:10:20.081Z,20.23
2018-09-03T11:12:49.456Z,22.20
2018-09-03T11:15:19.120Z,21.50
2018-09-03T11:17:48.674Z,22.83
2018-09-03T11:20:22.747Z,23.60
2018-09-03T11:22:52.487Z,23.73
2018-09-03T11:25:22.828Z,25.00
2018-09-03T11:27:52.961Z,22.03
2018-09-03T11:30:22.893Z,23.77
2018-09-03T11:32:59.827Z,24.43
2018-09-03T11:35:29.358Z,24.53
2018-09-03T11:37:59.641Z,21.53
2018-09-03T11:40:28.990Z,22.63
2018-09-03T11:43:04.844Z,21.87
2018-09-03T11:45:34.477Z,23.83
2018-09-03T11:48:03.839Z,25.70
2018-09-03T11:50:33.183Z,24.03
2018-09-03T11:53:03.096Z,25.23
2018-09-03T11:55:32.435Z,24.03
2018-09-03T11:58:01.991Z,24.93
2018-09-03T12:00:31.822Z,22.73
2018-09-03T12:03:01.228Z,24.23
2018-09-03T12:05:31.227Z,24.73
2018-09-03T12:08:00.684Z,24.87
2018-09-03T12:10:30.007Z,23.13
2018-09-03T12:12:59.332Z,21.90
2018-09-03T12:15:32.217Z,22.77
2018-09-03T12:18:02.359Z,22.50
2018-09-03T12:20:31.674Z,23.10
2018-09-03T12:23:01.343Z,23.63
2018-09-03T12:25:30.755Z,26.63
2018-09-03T12:28:00.767Z,25.03
2018-09-03T12:30:30.443Z,23.27
2018-09-03T12:32:59.874Z,21.20
2018-09-03T12:35:32.364Z,20.57
2018-09-03T12:38:04.332Z,22.67
2018-09-03T12:40:48.834Z,23.80
2018-09-03T12:43:22.444Z,21.63
2018-09-03T12:46:02.371Z,23.30
2018-09-03T12:48:32.161Z,24.07
2018-09-03T12:51:06.395Z,23.37
2018-09-03T12:53:41.952Z,21.23
2018-09-03T12:56:11.102Z,21.93
2018-09-03T12:58:40.271Z,24.27
2018-09-03T13:01:09.351Z,24.57
2018-09-03T13:03:38.518Z,22.10
2018-09-03T13:06:07.963Z,22.60
2018-09-03T13:08:37.032Z,24.53
2018-09-03T13:11:06.380Z,24.23
2018-09-03T13:13:36.081Z,23.63
2018-09-03T13:16:05.981Z,23.87
2018-09-03T13:18:35.619Z,22.97
2018-09-03T13:21:05.070Z,21.10
2018-09-03T13:23:34.400Z,24.70
2018-09-03T13:26:03.775Z,21.67
2018-09-03T13:28:33.272Z,20.67
2018-09-03T13:31:02.684Z,19.60
2018-09-03T13:33:32.067Z,20.90
2018-09-03T13:36:01.508Z,19.57
2018-09-03T13:38:30.937Z,21.70
2018-09-03T13:41:00.830Z,21.97
2018-09-03T13:43:30.126Z,22.43
2018-09-03T13:45:59.478Z,21.87
2018-09-03T13:48:28.940Z,21.47
2018-09-03T13:50:58.464Z,19.83
2018-09-03T13:53:27.937Z,20.70
2018-09-03T13:55:57.918Z,20.33
2018-09-03T13:58:27.352Z,20.17
2018-09-03T14:00:56.713Z,22.07
2018-09-03T14:03:26.063Z,22.97
2018-09-03T14:05:55.440Z,23.50
2018-09-03T14:08:25.279Z,23.97
2018-09-03T14:10:54.628Z,23.27
2018-09-03T14:13:24.014Z,22.93
2018-09-03T14:15:53.729Z,22.30
2018-09-03T14:18:23.049Z,24.17
2018-09-03T14:20:52.907Z,23.20
2018-09-03T14:23:22.406Z,21.30
2018-09-03T14:25:51.802Z,23.87
2018-09-03T14:28:21.151Z,21.27
2018-09-03T14:30:50.666Z,22.63
2018-09-03T14:33:21.240Z,22.17
2018-09-03T14:35:53.431Z,22.73
2018-09-03T14:38:22.766Z,23.20
2018-09-03T14:40:52.129Z,19.40
2018-09-03T14:43:21.534Z,20.23
2018-09-03T14:45:50.958Z,19.97
2018-09-03T14:48:20.651Z,20.43
2018-09-03T14:50:50.083Z,19.97
2018-09-03T14:53:20.679Z,19.30
2018-09-03T14:55:50.105Z,20.43
2018-09-03T14:58:19.416Z,21.00
2018-09-03T15:00:48.854Z,22.83
2018-09-03T15:03:18.231Z,21.20
2018-09-03T15:05:47.666Z,20.13
2018-09-03T15:08:17.027Z,19.20
2018-09-03T15:10:46.491Z,21.93
2018-09-03T15:13:15.814Z,20.50
2018-09-03T15:15:45.134Z,18.20
2018-09-03T15:18:14.890Z,19.07
2018-09-03T15:20:44.368Z,19.07
2018-09-03T15:23:13.739Z,19.20
2018-09-03T15:25:43.148Z,22.07
2018-09-03T15:28:12.472Z,22.60
2018-09-03T15:30:42.300Z,21.10
2018-09-03T15:33:11.601Z,22.60
2018-09-03T15:35:40.950Z,21.23
2018-09-03T15:38:10.319Z,21.87
2018-09-03T15:40:39.850Z,22.93
2018-09-03T15:43:09.235Z,22.70
2018-09-03T15:45:38.565Z,23.87
2018-09-03T15:48:07.938Z,23.87
2018-09-03T15:50:37.235Z,22.40
2018-09-03T15:53:06.571Z,21.17
2018-09-03T15:55:36.036Z,21.23
2018-09-03T15:58:05.457Z,22.50
2018-09-03T16:00:34.812Z,22.37
2018-09-03T16:03:04.472Z,22.17
2018-09-03T16:05:33.790Z,21.23
2018-09-03T16:08:03.117Z,19.87
2018-09-03T16:10:32.512Z,19.70
2018-09-03T16:13:01.999Z,19.83
2018-09-03T16:15:31.402Z,20.10
2018-09-03T16:18:00.772Z,21.70
2018-09-03T16:20:30.185Z,22.60
2018-09-03T16:22:59.612Z,22.00
2018-09-03T16:25:29.107Z,23.50
2018-09-03T16:27:58.479Z,24.23
2018-09-03T16:30:28.008Z,18.97
2018-09-03T16:32:57.448Z,21.17
2018-09-03T16:35:26.911Z,21.37
2018-09-03T16:37:56.273Z,21.17
2018-09-03T16:40:25.688Z,22.37
2018-09-03T16:42:55.059Z,22.60
2018-09-03T16:45:24.386Z,20.13
2018-09-03T16:47:53.868Z,23.10
2018-09-03T16:50:23.182Z,21.20
2018-09-03T16:52:52.537Z,23.40
2018-09-03T16:55:22.236Z,23.30
2018-09-03T16:57:51.599Z,22.67
2018-09-03T17:00:21.008Z,22.57
2018-09-03T17:02:50.412Z,21.33
2018-09-03T17:05:19.739Z,23.30
2018-09-03T17:07:49.168Z,22.70
2018-09-03T17:10:18.557Z,22.07
2018-09-03T17:12:47.963Z,22.20
2018-09-03T17:15:17.336Z,21.47
2018-09-03T17:17:46.707Z,23.67
2018-09-03T17:20:16.211Z,23.13
2018-09-03T17:22:45.582Z,22.13
2018-09-03T17:25:14.982Z,28.10
2018-09-03T17:27:44.368Z,23.63
2018-09-03T17:30:13.699Z,23.20
2018-09-03T17:32:43.047Z,23.10
2018-09-03T17:35:12.460Z,23.17
2018-09-03T17:37:41.833Z,20.03
2018-09-03T17:40:11.272Z,22.07
2018-09-03T17:42:40.828Z,21.97
2018-09-03T17:45:10.461Z,23.50
2018-09-03T17:47:40.566Z,25.13
2018-09-03T17:50:10.126Z,22.00
2018-09-03T17:52:39.543Z,20.50
2018-09-03T17:55:09.788Z,20.00
2018-09-03T17:57:39.123Z,23.60
2018-09-03T18:00:08.588Z,25.90
2018-09-03T18:02:37.972Z,23.50
2018-09-03T18:05:07.376Z,25.90
2018-09-03T18:07:36.789Z,23.30
2018-09-03T18:10:06.383Z,26.43
2018-09-03T18:12:35.761Z,23.47
2018-09-03T18:15:05.452Z,25.47
2018-09-03T18:17:34.859Z,24.67
2018-09-03T18:20:04.370Z,23.37
2018-09-03T18:22:33.750Z,24.60
2018-09-03T18:25:03.129Z,22.77
2018-09-03T18:27:32.613Z,22.47
2018-09-03T18:30:02.035Z,23.07
2018-09-03T18:32:31.483Z,23.27
2018-09-03T18:35:00.926Z,22.40
2018-09-03T18:37:30.234Z,22.60
2018-09-03T18:39:59.627Z,21.40
2018-09-03T18:42:29.139Z,22.47
2018-09-03T18:44:59.408Z,24.10
2018-09-03T18:47:29.019Z,24.57
2018-09-03T18:49:58.455Z,24.53
2018-09-03T18:52:27.893Z,23.67
2018-09-03T18:54:57.334Z,25.00
2018-09-03T18:57:26.919Z,25.23
2018-09-03T18:59:56.300Z,26.80
2018-09-03T19:02:25.672Z,24.00
2018-09-03T19:04:55.249Z,23.97
2018-09-03T19:07:24.516Z,22.97
2018-09-03T19:09:54.108Z,24.27
2018-09-03T19:12:24.043Z,27.10
2018-09-03T19:14:53.561Z,24.27
2018-09-03T19:17:23.151Z,25.27
2018-09-03T19:19:52.555Z,23.63
2018-09-03T19:22:22.415Z,25.30
2018-09-03T19:24:51.681Z,25.53
2018-09-03T19:27:21.056Z,25.93
2018-09-03T19:29:50.470Z,24.37
2018-09-03T19:32:19.832Z,23.50
2018-09-03T19:34:49.298Z,25.70
2018-09-03T19:37:18.606Z,25.37
2018-09-03T19:39:48.056Z,24.80
2018-09-03T19:42:17.369Z,24.13
2018-09-03T19:44:46.686Z,23.00
2018-09-03T19:47:16.112Z,23.37
2018-09-03T19:49:45.467Z,25.53
2018-09-03T19:52:14.813Z,24.20
2018-09-03T19:54:44.269Z,24.20
2018-09-03T19:57:13.671Z,25.93
2018-09-03T19:59:43.133Z,24.60
2018-09-03T20:02:12.674Z,24.40
2018-09-03T20:04:41.973Z,26.70
2018-09-03T20:07:11.581Z,27.13
2018-09-03T20:09:41.235Z,26.03
2018-09-03T20:12:10.714Z,27.07
2018-09-03T20:14:40.088Z,25.47
2018-09-03T20:17:09.669Z,29.70
2018-09-03T20:19:38.944Z,28.10
2018-09-03T20:22:13.332Z,27.00
2018-09-03T20:24:43.053Z,28.47
2018-09-03T20:27:12.793Z,27.90
2018-09-03T20:29:42.801Z,26.93
2018-09-03T20:32:12.471Z,28.93
2018-09-03T20:34:42.271Z,30.60
2018-09-03T20:37:11.818Z,27.30
2018-09-03T20:39:41.279Z,33.40
2018-09-03T20:42:10.684Z,29.10
2018-09-03T20:44:40.150Z,27.27
2018-09-03T20:47:09.436Z,27.27
2018-09-03T20:49:38.874Z,28.47
2018-09-03T20:52:08.318Z,28.00
2018-09-03T20:54:37.655Z,27.57
2018-09-03T20:57:07.099Z,27.07
2018-09-03T20:59:36.404Z,26.83
2018-09-03T21:02:05.898Z,26.50
2018-09-03T21:04:35.209Z,29.33
2018-09-03T21:07:04.595Z,25.43
2018-09-03T21:09:33.900Z,29.50
2018-09-03T21:12:03.335Z,28.47
2018-09-03T21:14:32.793Z,28.40
2018-09-03T21:17:02.085Z,29.23
2018-09-03T21:19:31.423Z,30.27
2018-09-03T21:22:00.858Z,29.20
2018-09-03T21:24:30.112Z,27.03
2018-09-03T21:26:59.467Z,31.00
2018-09-03T21:29:28.861Z,28.90
2018-09-03T21:31:58.406Z,28.63
2018-09-03T21:34:27.855Z,28.80
2018-09-03T21:36:57.194Z,29.10
2018-09-03T21:39:26.576Z,27.70
2018-09-03T21:41:55.940Z,29.87
2018-09-03T21:44:25.316Z,30.37
2018-09-03T21:46:54.677Z,28.43
2018-09-03T21:49:24.149Z,31.80
2018-09-03T21:51:53.584Z,31.43
2018-09-03T21:54:23.058Z,35.03
2018-09-03T21:56:52.369Z,34.30
2018-09-03T21:59:21.724Z,32.07
2018-09-03T22:01:52.194Z,33.07
2018-09-03T22:04:21.588Z,33.97
2018-09-03T22:06:50.956Z,34.27
2018-09-03T22:09:20.472Z,35.47
2018-09-03T22:11:49.924Z,35.57
2018-09-03T22:14:19.320Z,32.90
2018-09-03T22:16:48.678Z,35.60
2018-09-03T22:19:18.493Z,35.27
2018-09-03T22:21:47.822Z,33.40
2018-09-03T22:24:17.199Z,35.33
2018-09-03T22:26:46.639Z,36.83
2018-09-03T22:29:16.062Z,37.07
2018-09-03T22:31:45.432Z,36.13
2018-09-03T22:34:15.031Z,37.77
2018-09-03T22:36:44.845Z,31.73
2018-09-03T22:39:14.790Z,32.87
2018-09-03T22:41:44.131Z,30.97
2018-09-03T22:44:13.528Z,30.40
2018-09-03T22:46:43.623Z,30.40
2018-09-03T22:49:13.103Z,33.87
2018-09-03T22:51:42.511Z,32.07
2018-09-03T22:54:11.858Z,33.17
2018-09-03T22:56:41.320Z,34.83
2018-09-03T22:59:10.734Z,34.43
2018-09-03T23:01:40.149Z,35.03
2018-09-03T23:04:09.624Z,36.50
2018-09-03T23:06:38.990Z,34.67
2018-09-03T23:09:08.547Z,30.83
2018-09-03T23:11:38.117Z,32.57
2018-09-03T23:14:07.979Z,36.80
2018-09-03T23:16:37.433Z,34.67
2018-09-03T23:19:06.860Z,32.77
2018-09-03T23:21:36.188Z,32.97
2018-09-03T23:24:06.079Z,32.10
2018-09-03T23:26:35.469Z,34.17
2018-09-03T23:29:05.067Z,32.67
2018-09-03T23:31:34.474Z,30.83
2018-09-03T23:34:03.806Z,31.87
2018-09-03T23:36:33.166Z,34.17
2018-09-03T23:39:02.552Z,31.90
2018-09-03T23:41:31.837Z,33.40
2018-09-03T23:44:01.198Z,33.27
2018-09-03T23:46:30.576Z,35.60
2018-09-03T23:48:59.973Z,36.40
2018-09-03T23:51:29.278Z,36.03
2018-09-03T23:53:58.581Z,36.77
2018-09-03T23:56:27.887Z,33.70
2018-09-03T23:58:57.204Z,31.60
